Terminal Aerodrome Forecast
Issued by NWS

Home | Current Version | Previous Version | Text Only | Print | Product List | Glossary On
Versions: 1 2 3 4 5 6 7 8 9 10 11 12 13 14 15 16 17 18 19 20 21
933
FTUS46 KSGX 270520
TAFSNA
TAF
KSNA 270520Z 2706/2806 VRB04KT P6SM FEW020
     FM270900 VRB04KT P6SM BKN018
     FM271600 VRB04KT P6SM SCT018
     FM271900 21010KT P6SM SKC
     FM280200 VRB04KT P6SM SKC=

USA.gov is the U.S. government's official web portal to all federal, state and local government web resources and services.